sensor_id;sensor_type;location;lat;lon;timestamp;pressure;altitude;pressure_sealevel;temperature;humidity
41712;BME280;27399;51.516;13.670;2023-04-30T00:02:01;100843.38;;;13.69;73.03
41712;BME280;27399;51.516;13.670;2023-04-30T00:04:27;100847.94;;;13.62;73.62
41712;BME280;27399;51.516;13.670;2023-04-30T00:06:53;100848.94;;;13.53;73.33
41712;BME280;27399;51.516;13.670;2023-04-30T00:09:18;100852.44;;;13.60;73.84
41712;BME280;27399;51.516;13.670;2023-04-30T00:11:44;100853.25;;;13.63;73.99
41712;BME280;27399;51.516;13.670;2023-04-30T00:14:10;100854.50;;;13.39;74.88
41712;BME280;27399;51.516;13.670;2023-04-30T00:16:35;100858.03;;;13.41;74.03
41712;BME280;27399;51.516;13.670;2023-04-30T00:19:01;100857.28;;;13.30;74.35
41712;BME280;27399;51.516;13.670;2023-04-30T00:21:26;100858.13;;;13.32;73.83
41712;BME280;27399;51.516;13.670;2023-04-30T00:23:52;100854.56;;;13.31;74.33
41712;BME280;27399;51.516;13.670;2023-04-30T00:26:21;100855.56;;;13.24;73.29
41712;BME280;27399;51.516;13.670;2023-04-30T00:28:46;100856.44;;;13.26;73.10
41712;BME280;27399;51.516;13.670;2023-04-30T00:31:12;100851.09;;;13.23;73.15
41712;BME280;27399;51.516;13.670;2023-04-30T00:33:37;100855.75;;;13.07;73.30
41712;BME280;27399;51.516;13.670;2023-04-30T00:36:04;100863.78;;;13.07;72.98
41712;BME280;27399;51.516;13.670;2023-04-30T00:38:30;100859.31;;;13.09;73.92
41712;BME280;27399;51.516;13.670;2023-04-30T00:40:55;100868.25;;;13.08;73.08
41712;BME280;27399;51.516;13.670;2023-04-30T00:43:21;100865.59;;;13.05;73.10
41712;BME280;27399;51.516;13.670;2023-04-30T00:45:47;100871.84;;;13.04;73.50
41712;BME280;27399;51.516;13.670;2023-04-30T00:48:13;100877.16;;;13.10;73.01
41712;BME280;27399;51.516;13.670;2023-04-30T00:50:40;100871.94;;;12.98;73.35
41712;BME280;27399;51.516;13.670;2023-04-30T00:53:08;100882.75;;;12.89;73.52
41712;BME280;27399;51.516;13.670;2023-04-30T00:55:34;100884.59;;;12.82;74.47
41712;BME280;27399;51.516;13.670;2023-04-30T00:58:00;100884.66;;;12.74;75.03
41712;BME280;27399;51.516;13.670;2023-04-30T01:00:26;100888.31;;;12.65;74.58
41712;BME280;27399;51.516;13.670;2023-04-30T01:02:52;100883.81;;;12.70;74.54
41712;BME280;27399;51.516;13.670;2023-04-30T01:05:18;100889.28;;;12.58;74.98
41712;BME280;27399;51.516;13.670;2023-04-30T01:07:44;100890.13;;;12.62;74.65
41712;BME280;27399;51.516;13.670;2023-04-30T01:10:14;100897.34;;;12.57;74.76
41712;BME280;27399;51.516;13.670;2023-04-30T01:13:02;100900.91;;;12.55;75.33
41712;BME280;27399;51.516;13.670;2023-04-30T01:18:24;100914.38;;;12.46;75.24
41712;BME280;27399;51.516;13.670;2023-04-30T01:20:56;100917.97;;;12.40;75.53
41712;BME280;27399;51.516;13.670;2023-04-30T01:26:12;100923.41;;;12.28;75.81
41712;BME280;27399;51.516;13.670;2023-04-30T01:28:39;100920.72;;;12.30;75.45
41712;BME280;27399;51.516;13.670;2023-04-30T01:31:12;100929.69;;;12.26;75.07
41712;BME280;27399;51.516;13.670;2023-04-30T01:33:38;100923.41;;;12.30;74.40
41712;BME280;27399;51.516;13.670;2023-04-30T01:36:27;100929.63;;;12.32;74.11
41712;BME280;27399;51.516;13.670;2023-04-30T01:39:36;100937.66;;;12.32;74.96
41712;BME280;27399;51.516;13.670;2023-04-30T01:42:09;100936.72;;;12.34;75.28
41712;BME280;27399;51.516;13.670;2023-04-30T01:47:39;100931.56;;;12.11;75.65
41712;BME280;27399;51.516;13.670;2023-04-30T01:52:46;100943.16;;;12.10;75.17
41712;BME280;27399;51.516;13.670;2023-04-30T01:55:20;100947.66;;;12.05;75.55
41712;BME280;27399;51.516;13.670;2023-04-30T01:57:57;100944.13;;;11.93;76.09
41712;BME280;27399;51.516;13.670;2023-04-30T02:00:25;100947.66;;;11.99;75.83
41712;BME280;27399;51.516;13.670;2023-04-30T02:02:51;100957.53;;;11.84;76.25
41712;BME280;27399;51.516;13.670;2023-04-30T02:05:17;100959.31;;;11.79;75.81
41712;BME280;27399;51.516;13.670;2023-04-30T02:07:44;100963.78;;;11.83;75.69
41712;BME280;27399;51.516;13.670;2023-04-30T02:10:11;100963.91;;;11.54;76.52
41712;BME280;27399;51.516;13.670;2023-04-30T02:12:38;100970.09;;;11.60;76.56
41712;BME280;27399;51.516;13.670;2023-04-30T02:15:04;100972.75;;;11.67;76.26
41712;BME280;27399;51.516;13.670;2023-04-30T02:17:30;100973.59;;;11.73;75.60
41712;BME280;27399;51.516;13.670;2023-04-30T02:19:57;100977.22;;;11.69;75.66
41712;BME280;27399;51.516;13.670;2023-04-30T02:22:23;100986.13;;;11.68;75.76
41712;BME280;27399;51.516;13.670;2023-04-30T02:24:48;100991.47;;;11.57;76.28
41712;BME280;27399;51.516;13.670;2023-04-30T02:27:14;100999.53;;;11.51;76.59
41712;BME280;27399;51.516;13.670;2023-04-30T02:29:40;100990.63;;;11.46;76.70
41712;BME280;27399;51.516;13.670;2023-04-30T02:32:06;100996.88;;;11.40;77.00
41712;BME280;27399;51.516;13.670;2023-04-30T02:34:31;100999.56;;;11.42;76.92
41712;BME280;27399;51.516;13.670;2023-04-30T02:36:57;101001.31;;;11.43;76.50
41712;BME280;27399;51.516;13.670;2023-04-30T02:39:23;100997.81;;;11.28;77.27
41712;BME280;27399;51.516;13.670;2023-04-30T02:41:48;101004.06;;;11.18;77.25
41712;BME280;27399;51.516;13.670;2023-04-30T02:44:14;101001.34;;;11.32;76.68
41712;BME280;27399;51.516;13.670;2023-04-30T02:46:40;101000.50;;;11.24;76.79
41712;BME280;27399;51.516;13.670;2023-04-30T02:49:06;101003.16;;;11.19;76.72
41712;BME280;27399;51.516;13.670;2023-04-30T02:51:31;101013.84;;;11.13;76.74
41712;BME280;27399;51.516;13.670;2023-04-30T02:53:57;101023.63;;;11.05;77.75
41712;BME280;27399;51.516;13.670;2023-04-30T02:56:23;101016.53;;;11.02;77.29
41712;BME280;27399;51.516;13.670;2023-04-30T02:58:48;101014.75;;;10.99;77.34
41712;BME280;27399;51.516;13.670;2023-04-30T03:01:14;101029.88;;;11.04;77.45
41712;BME280;27399;51.516;13.670;2023-04-30T03:03:40;101028.09;;;10.96;77.26
41712;BME280;27399;51.516;13.670;2023-04-30T03:06:06;101033.44;;;10.93;77.50
41712;BME280;27399;51.516;13.670;2023-04-30T03:08:31;101035.19;;;10.91;77.31
41712;BME280;27399;51.516;13.670;2023-04-30T03:10:57;101033.44;;;10.79;77.22
41712;BME280;27399;51.516;13.670;2023-04-30T03:13:23;101038.78;;;10.87;77.48
41712;BME280;27399;51.516;13.670;2023-04-30T03:15:58;101044.06;;;10.64;77.66
41712;BME280;27399;51.516;13.670;2023-04-30T03:18:25;101042.31;;;10.70;77.42
41712;BME280;27399;51.516;13.670;2023-04-30T03:20:51;101045.88;;;10.66;77.04
41712;BME280;27399;51.516;13.670;2023-04-30T03:23:17;101045.03;;;10.84;76.96
41712;BME280;27399;51.516;13.670;2023-04-30T03:25:42;101047.69;;;10.84;76.44
41712;BME280;27399;51.516;13.670;2023-04-30T03:28:08;101058.34;;;10.78;76.18
41712;BME280;27399;51.516;13.670;2023-04-30T03:30:34;101058.31;;;10.61;76.20
41712;BME280;27399;51.516;13.670;2023-04-30T03:32:59;101060.97;;;10.66;76.21
41712;BME280;27399;51.516;13.670;2023-04-30T03:35:25;101059.22;;;10.52;77.12
41712;BME280;27399;51.516;13.670;2023-04-30T03:37:51;101062.72;;;10.45;77.42
41712;BME280;27399;51.516;13.670;2023-04-30T03:40:17;101061.84;;;10.49;76.71
41712;BME280;27399;51.516;13.670;2023-04-30T03:42:42;101061.84;;;10.42;76.78
41712;BME280;27399;51.516;13.670;2023-04-30T03:45:08;101067.09;;;10.29;77.49
41712;BME280;27399;51.516;13.670;2023-04-30T03:47:35;101056.44;;;10.28;76.90
41712;BME280;27399;51.516;13.670;2023-04-30T03:50:02;101067.09;;;10.23;76.45
41712;BME280;27399;51.516;13.670;2023-04-30T03:52:28;101069.72;;;10.14;77.29
41712;BME280;27399;51.516;13.670;2023-04-30T03:54:55;101079.41;;;9.88;77.80
41712;BME280;27399;51.516;13.670;2023-04-30T03:57:21;101079.38;;;9.87;78.08
41712;BME280;27399;51.516;13.670;2023-04-30T03:59:48;101082.84;;;9.70;78.20
41712;BME280;27399;51.516;13.670;2023-04-30T04:02:14;101086.41;;;9.72;78.39
41712;BME280;27399;51.516;13.670;2023-04-30T04:04:40;101092.59;;;9.67;78.62
41712;BME280;27399;51.516;13.670;2023-04-30T04:07:06;101106.66;;;9.44;79.16
41712;BME280;27399;51.516;13.670;2023-04-30T04:09:34;101098.66;;;9.45;79.40
41712;BME280;27399;51.516;13.670;2023-04-30T04:12:00;101102.25;;;9.54;79.29
41712;BME280;27399;51.516;13.670;2023-04-30T04:14:26;101092.41;;;9.43;79.52
41712;BME280;27399;51.516;13.670;2023-04-30T04:16:51;101103.28;;;9.73;78.67
41712;BME280;27399;51.516;13.670;2023-04-30T04:19:17;101105.84;;;9.59;78.91
41712;BME280;27399;51.516;13.670;2023-04-30T04:21:42;101103.19;;;9.59;78.61
41712;BME280;27399;51.516;13.670;2023-04-30T04:24:08;101112.91;;;9.54;78.54
41712;BME280;27399;51.516;13.670;2023-04-30T04:26:37;101115.59;;;9.58;78.80
41712;BME280;27399;51.516;13.670;2023-04-30T04:29:03;101124.53;;;9.65;78.82
41712;BME280;27399;51.516;13.670;2023-04-30T04:31:29;101134.25;;;9.57;79.39
41712;BME280;27399;51.516;13.670;2023-04-30T04:33:59;101136.00;;;9.55;79.61
41712;BME280;27399;51.516;13.670;2023-04-30T04:36:26;101135.16;;;9.57;79.57
41712;BME280;27399;51.516;13.670;2023-04-30T04:38:53;101138.69;;;9.58;79.54
41712;BME280;27399;51.516;13.670;2023-04-30T04:41:19;101136.09;;;9.69;79.77
41712;BME280;27399;51.516;13.670;2023-04-30T04:43:45;101144.06;;;9.67;79.96
41712;BME280;27399;51.516;13.670;2023-04-30T04:46:10;101144.16;;;9.80;79.73
41712;BME280;27399;51.516;13.670;2023-04-30T04:48:36;101145.94;;;9.82;79.97
41712;BME280;27399;51.516;13.670;2023-04-30T04:51:02;101153.06;;;9.82;79.93
41712;BME280;27399;51.516;13.670;2023-04-30T04:53:28;101157.50;;;9.83;80.43
41712;BME280;27399;51.516;13.670;2023-04-30T04:55:53;101166.38;;;9.82;80.69
41712;BME280;27399;51.516;13.670;2023-04-30T04:58:19;101169.00;;;9.75;81.14
41712;BME280;27399;51.516;13.670;2023-04-30T05:00:45;101166.47;;;9.94;79.93
41712;BME280;27399;51.516;13.670;2023-04-30T05:03:10;101168.31;;;10.09;79.09
41712;BME280;27399;51.516;13.670;2023-04-30T05:05:36;101167.41;;;10.07;79.72
41712;BME280;27399;51.516;13.670;2023-04-30T05:08:02;101166.56;;;10.13;80.14
41712;BME280;27399;51.516;13.670;2023-04-30T05:10:27;101163.06;;;10.29;79.28
41712;BME280;27399;51.516;13.670;2023-04-30T05:12:53;101174.59;;;10.17;78.65
41712;BME280;27399;51.516;13.670;2023-04-30T05:15:19;101173.81;;;10.38;77.71
41712;BME280;27399;51.516;13.670;2023-04-30T05:17:44;101177.31;;;10.36;77.80
41712;BME280;27399;51.516;13.670;2023-04-30T05:20:11;101177.41;;;10.44;78.39
41712;BME280;27399;51.516;13.670;2023-04-30T05:22:37;101175.53;;;10.35;78.74
41712;BME280;27399;51.516;13.670;2023-04-30T05:25:03;101184.53;;;10.51;78.28
41712;BME280;27399;51.516;13.670;2023-04-30T05:27:29;101189.00;;;10.55;77.58
41712;BME280;27399;51.516;13.670;2023-04-30T05:29:54;101186.31;;;10.53;77.99
41712;BME280;27399;51.516;13.670;2023-04-30T05:32:22;101184.56;;;10.60;77.53
41712;BME280;27399;51.516;13.670;2023-04-30T05:34:47;101197.91;;;10.54;77.32
41712;BME280;27399;51.516;13.670;2023-04-30T05:37:13;101196.16;;;10.65;77.86
41712;BME280;27399;51.516;13.670;2023-04-30T05:39:41;101198.84;;;10.70;77.35
41712;BME280;27399;51.516;13.670;2023-04-30T05:42:06;101197.06;;;10.80;77.67
41712;BME280;27399;51.516;13.670;2023-04-30T05:44:32;101198.84;;;10.75;77.76
41712;BME280;27399;51.516;13.670;2023-04-30T05:46:57;101200.66;;;10.87;76.75
41712;BME280;27399;51.516;13.670;2023-04-30T05:49:23;101206.03;;;10.94;75.87
41712;BME280;27399;51.516;13.670;2023-04-30T05:51:49;101205.13;;;10.84;77.02
41712;BME280;27399;51.516;13.670;2023-04-30T05:54:15;101208.72;;;11.04;77.37
41712;BME280;27399;51.516;13.670;2023-04-30T05:56:40;101211.38;;;10.97;77.55
41712;BME280;27399;51.516;13.670;2023-04-30T05:59:06;101210.53;;;11.17;76.53
41712;BME280;27399;51.516;13.670;2023-04-30T06:01:32;101206.97;;;11.09;76.62
41712;BME280;27399;51.516;13.670;2023-04-30T06:03:58;101220.31;;;11.15;76.03
41712;BME280;27399;51.516;13.670;2023-04-30T06:06:25;101209.63;;;11.18;76.04
41712;BME280;27399;51.516;13.670;2023-04-30T06:08:52;101214.03;;;11.04;75.93
41712;BME280;27399;51.516;13.670;2023-04-30T06:11:18;101213.19;;;11.26;74.72
41712;BME280;27399;51.516;13.670;2023-04-30T06:13:46;101197.19;;;11.20;75.78
41712;BME280;27399;51.516;13.670;2023-04-30T06:16:12;101217.66;;;11.29;74.84
41712;BME280;27399;51.516;13.670;2023-04-30T06:18:38;101213.19;;;11.23;76.45
41712;BME280;27399;51.516;13.670;2023-04-30T06:21:03;101218.53;;;11.26;76.29
41712;BME280;27399;51.516;13.670;2023-04-30T06:23:29;101211.44;;;11.31;75.06
41712;BME280;27399;51.516;13.670;2023-04-30T06:25:54;101223.84;;;11.06;74.46
41712;BME280;27399;51.516;13.670;2023-04-30T06:28:20;101221.22;;;11.36;75.38
41712;BME280;27399;51.516;13.670;2023-04-30T06:30:46;101217.66;;;11.41;75.11
41712;BME280;27399;51.516;13.670;2023-04-30T06:33:12;101223.91;;;11.42;73.99
41712;BME280;27399;51.516;13.670;2023-04-30T06:38:58;101225.69;;;11.40;76.72
41712;BME280;27399;51.516;13.670;2023-04-30T06:41:24;101224.81;;;11.59;74.59
41712;BME280;27399;51.516;13.670;2023-04-30T06:43:49;101229.25;;;11.67;73.59
41712;BME280;27399;51.516;13.670;2023-04-30T06:46:15;101226.56;;;11.59;72.28
41712;BME280;27399;51.516;13.670;2023-04-30T06:52:02;101227.44;;;11.75;73.41
41712;BME280;27399;51.516;13.670;2023-04-30T06:54:29;101231.03;;;11.82;73.00
41712;BME280;27399;51.516;13.670;2023-04-30T06:56:55;101235.50;;;11.84;74.09
41712;BME280;27399;51.516;13.670;2023-04-30T06:59:21;101228.38;;;11.99;72.63
41712;BME280;27399;51.516;13.670;2023-04-30T07:01:46;101225.69;;;11.88;72.25
41712;BME280;27399;51.516;13.670;2023-04-30T07:04:12;101230.13;;;12.09;71.04
41712;BME280;27399;51.516;13.670;2023-04-30T07:06:38;101229.25;;;11.94;71.75
41712;BME280;27399;51.516;13.670;2023-04-30T07:09:03;101232.84;;;12.06;71.62
41712;BME280;27399;51.516;13.670;2023-04-30T07:11:29;101235.47;;;12.12;70.39
41712;BME280;27399;51.516;13.670;2023-04-30T07:13:55;101234.59;;;12.10;69.92
41712;BME280;27399;51.516;13.670;2023-04-30T07:16:21;101241.72;;;12.14;70.21
41712;BME280;27399;51.516;13.670;2023-04-30T07:18:47;101236.31;;;12.33;70.54
41712;BME280;27399;51.516;13.670;2023-04-30T07:21:13;101236.31;;;12.37;70.48
41712;BME280;27399;51.516;13.670;2023-04-30T07:23:40;101237.25;;;12.22;68.99
41712;BME280;27399;51.516;13.670;2023-04-30T07:26:05;101237.19;;;12.41;70.29
41712;BME280;27399;51.516;13.670;2023-04-30T07:28:31;101239.84;;;12.49;69.07
41712;BME280;27399;51.516;13.670;2023-04-30T07:30:57;101237.19;;;12.47;69.00
41712;BME280;27399;51.516;13.670;2023-04-30T07:33:23;101232.72;;;12.40;69.02
41712;BME280;27399;51.516;13.670;2023-04-30T07:35:48;101232.63;;;12.73;70.61
41712;BME280;27399;51.516;13.670;2023-04-30T07:38:15;101232.59;;;12.76;67.84
41712;BME280;27399;51.516;13.670;2023-04-30T07:40:43;101231.69;;;12.83;67.92
41712;BME280;27399;51.516;13.670;2023-04-30T07:43:09;101234.28;;;12.97;67.86
41712;BME280;27399;51.516;13.670;2023-04-30T07:45:34;101237.00;;;12.84;65.20
41712;BME280;27399;51.516;13.670;2023-04-30T07:48:01;101230.66;;;13.10;65.60
41712;BME280;27399;51.516;13.670;2023-04-30T07:50:27;101239.53;;;13.15;65.91
41712;BME280;27399;51.516;13.670;2023-04-30T07:52:57;101234.25;;;13.01;66.21
41712;BME280;27399;51.516;13.670;2023-04-30T07:55:23;101225.19;;;13.21;65.97
41712;BME280;27399;51.516;13.670;2023-04-30T07:57:49;101241.19;;;13.41;66.06
41712;BME280;27399;51.516;13.670;2023-04-30T08:00:14;101242.09;;;13.36;64.71
41712;BME280;27399;51.516;13.670;2023-04-30T08:02:41;101230.47;;;13.33;63.68
41712;BME280;27399;51.516;13.670;2023-04-30T08:05:10;101244.78;;;13.32;63.26
41712;BME280;27399;51.516;13.670;2023-04-30T08:07:35;101237.59;;;13.36;65.14
41712;BME280;27399;51.516;13.670;2023-04-30T08:10:01;101242.06;;;13.43;64.92
41712;BME280;27399;51.516;13.670;2023-04-30T08:12:27;101242.97;;;13.36;63.34
41712;BME280;27399;51.516;13.670;2023-04-30T08:15:01;101234.06;;;13.29;63.52
41712;BME280;27399;51.516;13.670;2023-04-30T08:17:28;101238.53;;;13.33;63.95
41712;BME280;27399;51.516;13.670;2023-04-30T08:19:53;101244.78;;;13.31;64.29
41712;BME280;27399;51.516;13.670;2023-04-30T08:22:19;101238.47;;;13.44;64.48
41712;BME280;27399;51.516;13.670;2023-04-30T08:24:45;101248.25;;;13.52;65.06
41712;BME280;27399;51.516;13.670;2023-04-30T08:27:11;101251.84;;;13.49;66.17
41712;BME280;27399;51.516;13.670;2023-04-30T08:29:37;101241.19;;;13.40;63.78
41712;BME280;27399;51.516;13.670;2023-04-30T08:32:02;101242.97;;;13.42;64.21
41712;BME280;27399;51.516;13.670;2023-04-30T08:34:30;101244.69;;;13.53;63.54
41712;BME280;27399;51.516;13.670;2023-04-30T08:36:55;101242.84;;;13.59;63.85
41712;BME280;27399;51.516;13.670;2023-04-30T08:39:21;101244.59;;;13.62;63.62
41712;BME280;27399;51.516;13.670;2023-04-30T08:41:55;101247.25;;;13.67;63.53
41712;BME280;27399;51.516;13.670;2023-04-30T08:44:22;101246.19;;;13.83;64.79
41712;BME280;27399;51.516;13.670;2023-04-30T08:46:53;101241.78;;;13.77;63.23
41712;BME280;27399;51.516;13.670;2023-04-30T08:49:19;101239.81;;;14.00;64.76
41712;BME280;27399;51.516;13.670;2023-04-30T08:51:45;101246.13;;;13.91;64.32
41712;BME280;27399;51.516;13.670;2023-04-30T08:54:12;101246.06;;;14.02;63.05
41712;BME280;27399;51.516;13.670;2023-04-30T08:56:39;101245.91;;;14.16;63.33
41712;BME280;27399;51.516;13.670;2023-04-30T08:59:05;101251.19;;;14.22;62.15
41712;BME280;27399;51.516;13.670;2023-04-30T09:01:33;101244.06;;;14.22;61.11
41712;BME280;27399;51.516;13.670;2023-04-30T09:03:59;101244.91;;;14.24;59.20
41712;BME280;27399;51.516;13.670;2023-04-30T09:06:24;101249.16;;;14.46;58.95
41712;BME280;27399;51.516;13.670;2023-04-30T09:08:51;101246.53;;;14.41;57.91
41712;BME280;27399;51.516;13.670;2023-04-30T09:11:29;101239.22;;;14.54;60.28
41712;BME280;27399;51.516;13.670;2023-04-30T09:13:57;101244.81;;;14.35;58.79
41712;BME280;27399;51.516;13.670;2023-04-30T09:16:24;101257.13;;;14.53;58.98
41712;BME280;27399;51.516;13.670;2023-04-30T09:18:51;101248.81;;;14.77;60.43
41712;BME280;27399;51.516;13.670;2023-04-30T09:21:30;101244.53;;;14.60;61.49
41712;BME280;27399;51.516;13.670;2023-04-30T09:23:58;101246.16;;;14.74;58.46
41712;BME280;27399;51.516;13.670;2023-04-30T09:26:33;101256.09;;;14.68;59.61
41712;BME280;27399;51.516;13.670;2023-04-30T09:28:59;101244.81;;;15.09;59.53
41712;BME280;27399;51.516;13.670;2023-04-30T09:31:26;101244.50;;;15.30;58.86
41712;BME280;27399;51.516;13.670;2023-04-30T09:33:52;101244.47;;;15.33;56.98
41712;BME280;27399;51.516;13.670;2023-04-30T09:36:19;101243.44;;;15.41;58.30
41712;BME280;27399;51.516;13.670;2023-04-30T09:38:45;101241.22;;;15.69;58.13
41712;BME280;27399;51.516;13.670;2023-04-30T09:41:27;101245.75;;;15.64;57.82
41712;BME280;27399;51.516;13.670;2023-04-30T09:43:54;101242.03;;;15.73;59.51
41712;BME280;27399;51.516;13.670;2023-04-30T09:46:20;101238.97;;;15.98;55.53
41712;BME280;27399;51.516;13.670;2023-04-30T09:48:55;101241.88;;;15.82;56.72
41712;BME280;27399;51.516;13.670;2023-04-30T09:51:21;101242.66;;;15.92;55.65
41712;BME280;27399;51.516;13.670;2023-04-30T09:53:48;101237.03;;;16.04;56.68
41712;BME280;27399;51.516;13.670;2023-04-30T09:56:20;101234.66;;;15.87;55.37
41712;BME280;27399;51.516;13.670;2023-04-30T09:58:50;101228.88;;;15.56;56.10
41712;BME280;27399;51.516;13.670;2023-04-30T10:01:17;101239.50;;;15.63;54.24
41712;BME280;27399;51.516;13.670;2023-04-30T10:03:42;101235.72;;;15.75;55.80
41712;BME280;27399;51.516;13.670;2023-04-30T10:06:12;101225.59;;;15.91;55.55
41712;BME280;27399;51.516;13.670;2023-04-30T10:08:42;101230.09;;;15.34;53.80
41712;BME280;27399;51.516;13.670;2023-04-30T10:11:09;101214.59;;;15.52;54.22
41712;BME280;27399;51.516;13.670;2023-04-30T10:13:53;101218.75;;;15.72;55.83
41712;BME280;27399;51.516;13.670;2023-04-30T10:18:57;101221.91;;;15.42;54.33
41712;BME280;27399;51.516;13.670;2023-04-30T10:21:23;101214.47;;;15.58;53.24
41712;BME280;27399;51.516;13.670;2023-04-30T10:23:53;101218.94;;;15.59;56.25
41712;BME280;27399;51.516;13.670;2023-04-30T10:26:18;101219.19;;;15.45;52.55
41712;BME280;27399;51.516;13.670;2023-04-30T10:28:45;101209.25;;;15.49;53.72
41712;BME280;27399;51.516;13.670;2023-04-30T10:31:13;101204.78;;;15.48;54.70
41712;BME280;27399;51.516;13.670;2023-04-30T10:36:27;101204.44;;;15.71;55.05
41712;BME280;27399;51.516;13.670;2023-04-30T10:38:57;101192.84;;;15.66;55.24
41712;BME280;27399;51.516;13.670;2023-04-30T10:41:25;101193.91;;;15.56;55.79
41712;BME280;27399;51.516;13.670;2023-04-30T10:43:55;101198.88;;;15.80;56.59
41712;BME280;27399;51.516;13.670;2023-04-30T10:46:23;101187.22;;;15.80;54.94
41712;BME280;27399;51.516;13.670;2023-04-30T10:48:51;101190.63;;;15.91;55.35
41712;BME280;27399;51.516;13.670;2023-04-30T10:51:19;101197.88;;;15.88;55.92
41712;BME280;27399;51.516;13.670;2023-04-30T10:53:50;101199.75;;;15.84;53.80
41712;BME280;27399;51.516;13.670;2023-04-30T10:56:32;101194.09;;;15.98;56.42
41712;BME280;27399;51.516;13.670;2023-04-30T10:58:59;101190.50;;;15.99;52.91
41712;BME280;27399;51.516;13.670;2023-04-30T11:01:28;101188.72;;;15.98;53.18
41712;BME280;27399;51.516;13.670;2023-04-30T11:04:10;101187.34;;;16.24;54.81
41712;BME280;27399;51.516;13.670;2023-04-30T11:09:17;101187.16;;;16.33;52.89
41712;BME280;27399;51.516;13.670;2023-04-30T11:11:45;101185.66;;;16.18;50.57
41712;BME280;27399;51.516;13.670;2023-04-30T11:14:19;101187.25;;;16.29;52.50
41712;BME280;27399;51.516;13.670;2023-04-30T11:16:48;101171.16;;;16.25;51.54
41712;BME280;27399;51.516;13.670;2023-04-30T11:19:15;101176.50;;;16.29;53.36
41712;BME280;27399;51.516;13.670;2023-04-30T11:27:32;101173.47;;;16.44;52.15
41712;BME280;27399;51.516;13.670;2023-04-30T11:29:59;101173.38;;;16.49;50.96
41712;BME280;27399;51.516;13.670;2023-04-30T11:32:31;101175.91;;;16.56;50.44
41712;BME280;27399;51.516;13.670;2023-04-30T11:34:59;101179.66;;;16.49;50.97
41712;BME280;27399;51.516;13.670;2023-04-30T11:37:41;101174.78;;;16.67;51.02
41712;BME280;27399;51.516;13.670;2023-04-30T11:40:09;101175.75;;;16.63;48.22
41712;BME280;27399;51.516;13.670;2023-04-30T11:42:36;101175.53;;;16.73;49.57
41712;BME280;27399;51.516;13.670;2023-04-30T11:45:04;101182.00;;;16.65;50.79
41712;BME280;27399;51.516;13.670;2023-04-30T11:47:50;101166.38;;;16.82;51.64
41712;BME280;27399;51.516;13.670;2023-04-30T11:50:18;101166.38;;;16.82;51.75
41712;BME280;27399;51.516;13.670;2023-04-30T11:52:50;101163.09;;;16.68;51.08
